Time;durP1;ratioP1;P1;durP2;ratioP2;P2;SDS_P1;SDS_P2;PMS_P1;PMS_P2;Temp;Humidity;BMP_temperature;BMP_pressure;BME280_temperature;BME280_humidity;BME280_pressure;Samples;Min_cycle;Max_cycle;Signal;HPM_P1;HPM_P2
2023/10/25 00:01:11;;;;;;;0.20;0.20;;;;;;;17.86;59.93;100153.03;5050733;28;20453;-73
2023/10/25 00:03:37;;;;;;;0.20;0.20;;;;;;;17.24;61.41;100156.63;5050302;28;20040;-73
2023/10/25 00:06:02;;;;;;;0.20;0.20;;;;;;;17.93;60.10;100143.41;5031431;28;20538;-73
2023/10/25 00:08:28;;;;;;;0.20;0.20;;;;;;;17.83;59.56;100135.38;5050566;28;20424;-72
2023/10/25 00:11:03;;;;;;;0.15;0.15;;;;;;;17.87;59.92;100132.88;5050090;28;20119;-71
2023/10/25 00:13:28;;;;;;;0.10;0.10;;;;;;;17.63;60.71;100141.03;5050527;28;20404;-72
2023/10/25 00:15:54;;;;;;;0.20;0.20;;;;;;;18.04;59.27;100142.19;5050683;28;20025;-72
2023/10/25 00:18:19;;;;;;;0.20;0.20;;;;;;;16.39;64.69;100145.28;5049903;28;20213;-72
2023/10/25 00:20:44;;;;;;;0.20;0.20;;;;;;;17.12;63.17;100139.91;5049162;28;20037;-72
2023/10/25 00:23:10;;;;;;;0.20;0.20;;;;;;;16.95;63.87;100144.94;5049975;28;20519;-72
2023/10/25 00:25:35;;;;;;;0.20;0.20;;;;;;;16.78;64.63;100134.50;5050578;28;20057;-72
2023/10/25 00:28:00;;;;;;;0.20;0.20;;;;;;;17.21;62.95;100143.63;5050323;28;20037;-71
2023/10/25 00:30:25;;;;;;;0.20;0.20;;;;;;;16.99;63.14;100143.28;5050227;28;20094;-71
2023/10/25 00:32:51;;;;;;;0.20;0.20;;;;;;;17.23;63.04;100144.16;5031240;28;20036;-71
2023/10/25 00:35:16;;;;;;;0.20;0.20;;;;;;;17.10;62.11;100142.09;5049637;28;20382;-71
2023/10/25 00:37:41;;;;;;;0.20;0.20;;;;;;;17.19;63.15;100140.38;5049670;28;20109;-73
2023/10/25 00:40:07;;;;;;;0.30;0.30;;;;;;;17.57;61.32;100144.94;5050241;28;20119;-72
2023/10/25 00:42:33;;;;;;;0.20;0.20;;;;;;;17.03;63.70;100149.75;5049632;28;20603;-72
2023/10/25 00:44:58;;;;;;;0.10;0.10;;;;;;;17.49;61.37;100135.47;5049646;28;20202;-72
2023/10/25 00:47:24;;;;;;;0.32;0.32;;;;;;;16.94;63.87;100143.31;5049495;28;20151;-72
2023/10/25 00:49:50;;;;;;;0.30;0.30;;;;;;;17.70;60.65;100146.97;5049697;28;20117;-73
2023/10/25 00:52:16;;;;;;;0.20;0.20;;;;;;;17.99;59.62;100138.72;5050181;28;20405;-73
2023/10/25 00:54:42;;;;;;;0.20;0.20;;;;;;;17.71;59.82;100140.41;5049767;28;20048;-72
2023/10/25 00:57:08;;;;;;;0.20;0.20;;;;;;;18.08;58.75;100150.59;5049534;28;20035;-73
2023/10/25 00:59:35;;;;;;;0.13;0.13;;;;;;;18.01;59.26;100141.97;5030765;28;20445;-72
2023/10/25 01:02:02;;;;;;;0.20;0.20;;;;;;;17.85;59.02;100141.34;5049656;28;20063;-72
2023/10/25 01:04:29;;;;;;;0.25;0.25;;;;;;;18.26;58.02;100137.00;5049529;28;20041;-73
2023/10/25 01:06:54;;;;;;;0.20;0.20;;;;;;;17.71;59.17;100140.41;5050031;28;20113;-72
2023/10/25 01:09:20;;;;;;;0.30;0.30;;;;;;;17.83;58.90;100142.72;5049482;28;20472;-73
2023/10/25 01:11:45;;;;;;;0.10;0.10;;;;;;;18.07;58.62;100151.69;5049359;28;20048;-73
2023/10/25 01:14:11;;;;;;;0.25;0.25;;;;;;;18.41;57.31;100146.88;5049083;28;20480;-73
2023/10/25 01:16:36;;;;;;;0.20;0.20;;;;;;;18.30;56.81;100146.19;5049282;28;20453;-71
2023/10/25 01:19:02;;;;;;;0.20;0.20;;;;;;;18.33;56.84;100150.25;5049530;28;20412;-73
2023/10/25 01:21:27;;;;;;;0.20;0.20;;;;;;;18.37;56.45;100145.84;5049145;28;20501;-73
2023/10/25 01:23:55;;;;;;;0.20;0.20;;;;;;;17.88;58.30;100150.84;5049386;28;20451;-73
2023/10/25 01:26:21;;;;;;;0.30;0.30;;;;;;;18.09;57.20;100138.59;5049057;28;20315;-73
2023/10/25 01:28:46;;;;;;;0.30;0.30;;;;;;;18.14;56.80;100147.50;5049113;28;20033;-72
2023/10/25 01:31:11;;;;;;;0.20;0.20;;;;;;;17.95;57.67;100143.94;5058992;28;20538;-73
2023/10/25 01:33:36;;;;;;;0.22;0.22;;;;;;;18.04;56.65;100134.03;5056875;28;20554;-72
2023/10/25 01:36:02;;;;;;;0.28;0.28;;;;;;;18.03;56.75;100137.03;5048960;28;20482;-72
2023/10/25 01:38:27;;;;;;;0.13;0.13;;;;;;;18.00;56.77;100138.47;5048935;28;20541;-73
2023/10/25 01:40:53;;;;;;;0.20;0.20;;;;;;;17.88;56.70;100151.66;5048902;28;20071;-73
2023/10/25 01:43:18;;;;;;;0.10;0.10;;;;;;;17.92;56.60;100143.72;5049508;28;20039;-73
2023/10/25 01:45:43;;;;;;;0.17;0.17;;;;;;;17.73;57.25;100143.66;5049042;28;20068;-73
2023/10/25 01:48:09;;;;;;;0.20;0.20;;;;;;;17.72;56.98;100141.22;5048790;28;20048;-73
2023/10/25 01:50:34;;;;;;;0.20;0.20;;;;;;;17.47;57.69;100136.84;5049012;28;20110;-73
2023/10/25 01:52:59;;;;;;;0.32;0.32;;;;;;;17.70;57.34;100141.53;5030758;28;20037;-73
2023/10/25 01:55:25;;;;;;;0.30;0.30;;;;;;;17.59;57.31;100139.22;5049116;28;20060;-71
2023/10/25 01:57:51;;;;;;;0.30;0.30;;;;;;;17.64;57.13;100139.97;5048935;28;20465;-74
2023/10/25 02:00:17;;;;;;;0.20;0.20;;;;;;;17.59;57.61;100137.31;5047289;28;20032;-73
2023/10/25 02:02:42;;;;;;;0.20;0.20;;;;;;;17.61;57.21;100134.28;5048475;28;20381;-72
2023/10/25 02:05:08;;;;;;;0.20;0.20;;;;;;;17.57;57.65;100134.06;5048783;28;20045;-73
2023/10/25 02:07:34;;;;;;;0.38;0.38;;;;;;;17.57;57.13;100139.50;5049001;28;20461;-72
2023/10/25 02:09:59;;;;;;;0.30;0.30;;;;;;;17.50;57.48;100134.41;5049138;28;20028;-73
2023/10/25 02:12:25;;;;;;;0.20;0.20;;;;;;;17.22;58.57;100131.66;5048483;28;20135;-73
2023/10/25 02:14:50;;;;;;;0.30;0.30;;;;;;;17.51;58.35;100130.56;5048190;28;20037;-73
2023/10/25 02:17:16;;;;;;;0.30;0.30;;;;;;;16.89;59.76;100133.31;5048370;28;20116;-73
2023/10/25 02:19:42;;;;;;;0.25;0.25;;;;;;;17.52;58.07;100129.50;5062766;28;20091;-72
2023/10/25 02:22:07;;;;;;;0.20;0.20;;;;;;;17.36;58.50;100119.03;5068914;28;20028;-72
2023/10/25 02:24:32;;;;;;;0.40;0.40;;;;;;;17.49;57.53;100116.47;5050689;28;20029;-74
2023/10/25 02:26:58;;;;;;;0.20;0.20;;;;;;;17.37;57.83;100109.78;5048325;28;20037;-73
2023/10/25 02:29:23;;;;;;;0.20;0.20;;;;;;;17.19;59.52;100113.22;5047940;28;20037;-72
2023/10/25 02:31:49;;;;;;;0.28;0.28;;;;;;;17.50;58.05;100107.25;5048446;28;20036;-74
2023/10/25 02:34:14;;;;;;;0.30;0.30;;;;;;;17.52;58.00;100112.38;5049722;28;20036;-72
2023/10/25 02:36:39;;;;;;;0.32;0.32;;;;;;;17.73;57.13;100113.75;5068355;28;20135;-72
2023/10/25 02:39:04;;;;;;;0.10;0.10;;;;;;;17.33;58.38;100104.13;5068286;28;20215;-73
2023/10/25 02:41:30;;;;;;;0.20;0.20;;;;;;;17.23;59.45;100106.94;5068266;28;20120;-73
2023/10/25 02:43:56;;;;;;;0.20;0.20;;;;;;;17.51;57.75;100105.34;5068965;28;20051;-72
2023/10/25 02:46:22;;;;;;;0.20;0.20;;;;;;;17.62;57.36;100106.84;5071803;28;20025;-71
2023/10/25 02:48:49;;;;;;;0.15;0.15;;;;;;;17.52;57.84;100099.59;5072201;28;20040;-72
2023/10/25 02:51:15;;;;;;;0.30;0.30;;;;;;;17.47;57.48;100104.25;5071951;28;20029;-74
2023/10/25 02:53:41;;;;;;;0.40;0.40;;;;;;;17.27;58.87;100096.31;5072094;28;20035;-72
2023/10/25 02:56:07;;;;;;;0.30;0.30;;;;;;;17.48;58.05;100097.72;5071820;28;20024;-72
2023/10/25 02:58:34;;;;;;;0.32;0.32;;;;;;;17.22;59.40;100094.44;5061646;28;20028;-72
2023/10/25 03:01:00;;;;;;;0.20;0.20;;;;;;;17.27;58.16;100090.88;5051796;28;20029;-73
2023/10/25 03:03:29;;;;;;;0.40;0.40;;;;;;;17.32;58.57;100086.22;5051599;28;20032;-72
2023/10/25 03:05:55;;;;;;;0.30;0.30;;;;;;;16.95;59.52;100085.22;5051764;28;20350;-73
2023/10/25 03:08:21;;;;;;;0.20;0.20;;;;;;;17.25;58.31;100084.94;5051734;28;20036;-73
2023/10/25 03:10:46;;;;;;;0.30;0.30;;;;;;;17.05;59.40;100083.22;5051317;28;20025;-73
2023/10/25 03:13:12;;;;;;;0.20;0.20;;;;;;;17.14;58.57;100075.28;5051975;28;20020;-73
2023/10/25 03:15:37;;;;;;;0.20;0.20;;;;;;;17.46;57.38;100068.13;5051267;28;20025;-73
2023/10/25 03:18:03;;;;;;;0.30;0.30;;;;;;;17.34;57.59;100067.72;5051014;28;20033;-71
2023/10/25 03:20:29;;;;;;;0.40;0.40;;;;;;;17.37;57.56;100067.16;5051564;28;20315;-73
2023/10/25 03:22:55;;;;;;;0.28;0.28;;;;;;;17.01;58.58;100070.50;5051096;28;20063;-73
2023/10/25 03:25:20;;;;;;;0.20;0.20;;;;;;;17.34;58.03;100067.72;5051306;28;20029;-72
2023/10/25 03:27:46;;;;;;;0.22;0.22;;;;;;;17.35;57.86;100063.09;5051441;28;20039;-73
2023/10/25 03:30:11;;;;;;;0.20;0.20;;;;;;;17.28;57.64;100060.72;5050967;28;20045;-73
2023/10/25 03:32:37;;;;;;;0.20;0.20;;;;;;;17.25;57.41;100058.59;5051063;28;20041;-72
2023/10/25 03:35:02;;;;;;;0.30;0.30;;;;;;;17.26;57.37;100067.53;5050754;28;20041;-73
2023/10/25 03:37:28;;;;;;;0.25;0.25;;;;;;;17.22;57.65;100069.19;5050952;28;20404;-72
2023/10/25 03:39:53;;;;;;;0.40;0.40;;;;;;;17.18;57.59;100070.88;5051546;28;20093;-72
2023/10/25 03:42:18;;;;;;;0.20;0.20;;;;;;;16.85;58.32;100069.84;5033009;28;20123;-72
2023/10/25 03:44:44;;;;;;;0.38;0.38;;;;;;;16.58;59.89;100074.94;5050785;28;20059;-73
2023/10/25 03:47:09;;;;;;;0.28;0.28;;;;;;;16.95;58.64;100068.94;5050780;28;20486;-72
2023/10/25 03:49:34;;;;;;;0.20;0.20;;;;;;;17.10;57.56;100064.16;5050644;28;20392;-73
2023/10/25 03:52:00;;;;;;;0.20;0.20;;;;;;;16.67;59.37;100068.63;5032610;28;20586;-73
2023/10/25 03:54:25;;;;;;;0.10;0.10;;;;;;;17.04;57.46;100065.31;5050583;28;20051;-73
2023/10/25 03:56:50;;;;;;;0.40;0.40;;;;;;;17.01;58.08;100062.34;5049960;28;20040;-73
2023/10/25 03:59:16;;;;;;;0.20;0.20;;;;;;;16.92;58.38;100061.38;5050002;28;20123;-73
2023/10/25 04:01:41;;;;;;;0.40;0.40;;;;;;;16.55;59.55;100070.06;5043683;28;20036;-73
2023/10/25 04:04:09;;;;;;;0.17;0.17;;;;;;;16.75;59.00;100061.78;5039466;28;20095;-73
2023/10/25 04:06:35;;;;;;;0.30;0.30;;;;;;;16.70;59.60;100072.69;5033771;28;20371;-72
2023/10/25 04:09:01;;;;;;;0.30;0.30;;;;;;;16.59;59.80;100061.09;5048911;28;20477;-73
2023/10/25 04:11:26;;;;;;;0.20;0.20;;;;;;;16.88;58.67;100055.72;5036133;28;20047;-72
2023/10/25 04:13:52;;;;;;;0.17;0.17;;;;;;;16.85;58.56;100050.03;5049999;28;20489;-73
2023/10/25 04:16:17;;;;;;;0.30;0.30;;;;;;;16.83;58.60;100057.63;5061339;28;20032;-71
2023/10/25 04:18:42;;;;;;;0.30;0.30;;;;;;;16.88;58.00;100050.28;5069109;28;20052;-73
2023/10/25 04:21:10;;;;;;;0.30;0.30;;;;;;;16.80;58.20;100047.38;5050246;28;20061;-73
2023/10/25 04:23:36;;;;;;;0.30;0.30;;;;;;;16.93;57.96;100047.50;5050147;28;20485;-73
2023/10/25 04:26:06;;;;;;;0.30;0.30;;;;;;;16.72;58.47;100047.97;5044122;28;20041;-73
2023/10/25 04:28:31;;;;;;;0.20;0.20;;;;;;;16.98;57.87;100042.00;5011636;28;20041;-73
2023/10/25 04:30:57;;;;;;;0.35;0.35;;;;;;;16.87;58.27;100034.25;5030372;28;20029;-73
2023/10/25 04:33:22;;;;;;;0.30;0.30;;;;;;;16.81;58.40;100027.25;5029013;28;20072;-74
2023/10/25 04:35:48;;;;;;;0.20;0.20;;;;;;;16.56;59.64;100026.41;5050076;28;20402;-74
2023/10/25 04:38:13;;;;;;;0.28;0.28;;;;;;;16.60;58.73;100021.22;5045429;28;20511;-73
2023/10/25 04:40:38;;;;;;;0.22;0.22;;;;;;;16.81;58.26;100024.53;5045866;28;20048;-73
2023/10/25 04:43:04;;;;;;;0.20;0.20;;;;;;;16.78;58.14;100023.25;5049516;28;20480;-73
2023/10/25 04:45:29;;;;;;;0.30;0.30;;;;;;;16.84;58.36;100027.53;5049430;28;20454;-74
2023/10/25 04:47:55;;;;;;;0.20;0.20;;;;;;;16.44;59.70;100019.69;5049555;28;20037;-73
2023/10/25 04:50:24;;;;;;;0.30;0.30;;;;;;;16.65;59.26;100016.56;5049725;28;20250;-74
2023/10/25 04:52:49;;;;;;;0.40;0.40;;;;;;;16.59;59.00;100017.69;5049114;28;20048;-74
2023/10/25 04:55:15;;;;;;;0.30;0.30;;;;;;;16.58;59.08;100021.50;5050050;28;20021;-73
2023/10/25 04:57:40;;;;;;;0.30;0.30;;;;;;;16.67;59.32;100018.97;5049107;28;20045;-73
2023/10/25 05:00:09;;;;;;;0.30;0.30;;;;;;;16.74;59.15;100015.94;5048990;28;20552;-73
2023/10/25 05:02:38;;;;;;;0.30;0.30;;;;;;;16.58;59.47;100010.66;5046477;28;20039;-73
2023/10/25 05:05:07;;;;;;;0.38;0.38;;;;;;;16.37;60.47;100001.03;5049249;28;20162;-74
2023/10/25 05:07:34;;;;;;;0.40;0.40;;;;;;;16.41;59.87;99998.59;5048872;28;20124;-72
2023/10/25 05:10:00;;;;;;;0.30;0.30;;;;;;;16.63;59.03;99994.34;5050197;28;20461;-72
2023/10/25 05:12:36;;;;;;;0.28;0.28;;;;;;;16.42;60.10;99997.47;5049491;28;20171;-73
2023/10/25 05:15:02;;;;;;;0.20;0.20;;;;;;;16.41;59.33;99998.59;5049038;28;20073;-73
2023/10/25 05:17:28;;;;;;;0.30;0.30;;;;;;;16.72;58.80;99993.72;5049322;28;20065;-72
2023/10/25 05:19:53;;;;;;;0.30;0.30;;;;;;;16.64;59.21;100000.56;5065360;28;20048;-71
2023/10/25 05:22:25;;;;;;;0.35;0.35;;;;;;;16.80;58.64;99993.91;5051401;28;20443;-71
2023/10/25 05:24:50;;;;;;;0.10;0.10;;;;;;;16.55;59.41;99992.22;5070891;28;20024;-72
2023/10/25 05:27:16;;;;;;;0.30;0.30;;;;;;;16.65;58.62;99992.13;5063463;28;20032;-72
2023/10/25 05:29:42;;;;;;;0.30;0.30;;;;;;;16.38;59.60;99989.09;5052338;28;20055;-72
2023/10/25 05:32:12;;;;;;;0.30;0.30;;;;;;;16.59;59.19;99987.84;5069782;28;20047;-72
2023/10/25 05:34:38;;;;;;;0.22;0.22;;;;;;;16.54;58.98;99993.34;5069574;28;20028;-71
2023/10/25 05:37:04;;;;;;;0.20;0.20;;;;;;;16.31;59.95;99987.81;5070362;28;20381;-72
2023/10/25 05:39:29;;;;;;;0.20;0.20;;;;;;;16.61;59.17;99993.81;5070075;28;20045;-71
2023/10/25 05:41:55;;;;;;;0.38;0.38;;;;;;;15.90;61.95;99981.84;5070113;28;20049;-72
2023/10/25 05:44:21;;;;;;;0.30;0.30;;;;;;;16.56;59.19;99979.50;5069430;28;20434;-72
2023/10/25 05:46:46;;;;;;;0.32;0.32;;;;;;;16.53;58.65;99980.84;5069078;28;20040;-71
2023/10/25 05:49:12;;;;;;;0.20;0.20;;;;;;;16.74;58.81;99980.66;5069879;28;20173;-72
2023/10/25 05:51:38;;;;;;;0.20;0.20;;;;;;;16.80;58.82;99988.47;5069745;28;20110;-72
2023/10/25 05:54:03;;;;;;;0.22;0.22;;;;;;;16.68;58.37;99972.59;5069407;28;20047;-72
2023/10/25 05:56:29;;;;;;;0.40;0.40;;;;;;;16.40;58.96;99981.50;5069711;28;20400;-71
2023/10/25 05:58:56;;;;;;;0.20;0.20;;;;;;;16.53;58.93;99975.44;5069996;28;20036;-72
2023/10/25 06:01:42;;;;;;;0.30;0.30;;;;;;;16.45;60.63;99977.94;5068921;28;20020;-71
2023/10/25 06:04:11;;;;;;;0.40;0.40;;;;;;;16.57;59.52;99971.06;5066812;28;20039;-72
2023/10/25 06:06:38;;;;;;;0.20;0.20;;;;;;;16.63;59.33;99974.53;5068847;28;20088;-73
2023/10/25 06:09:04;;;;;;;0.30;0.30;;;;;;;16.72;59.21;99972.81;5069201;28;20040;-72
2023/10/25 06:11:29;;;;;;;0.30;0.30;;;;;;;16.82;58.64;99980.88;5052976;28;20044;-72
2023/10/25 06:13:55;;;;;;;0.40;0.40;;;;;;;16.44;60.66;99976.31;5085279;28;20048;-72
2023/10/25 06:16:20;;;;;;;0.30;0.30;;;;;;;16.76;58.90;99982.00;5069005;28;20036;-71
2023/10/25 06:18:46;;;;;;;0.30;0.30;;;;;;;16.57;60.22;99987.34;5070319;28;20057;-72
2023/10/25 06:21:11;;;;;;;0.40;0.40;;;;;;;16.74;59.56;99986.91;5072881;28;20055;-71
2023/10/25 06:23:37;;;;;;;0.40;0.40;;;;;;;16.93;59.17;99982.38;5073293;28;20070;-72
2023/10/25 06:26:03;;;;;;;0.30;0.30;;;;;;;16.64;60.10;99985.13;5073305;28;20166;-72
2023/10/25 06:28:29;;;;;;;0.30;0.30;;;;;;;17.02;59.25;99988.78;5074408;28;20115;-72
2023/10/25 06:30:55;;;;;;;0.20;0.20;;;;;;;17.28;58.10;99981.97;5074565;28;20376;-71
2023/10/25 06:33:20;;;;;;;0.25;0.25;;;;;;;17.30;58.41;99981.66;5074546;28;20052;-71
2023/10/25 06:35:46;;;;;;;0.30;0.30;;;;;;;16.95;59.14;99977.47;5074031;28;20036;-72
2023/10/25 06:38:11;;;;;;;0.30;0.30;;;;;;;17.29;58.46;99985.50;5074189;28;20025;-72
2023/10/25 06:40:37;;;;;;;0.20;0.20;;;;;;;17.39;58.22;99986.16;5074625;28;20535;-71
2023/10/25 06:43:03;;;;;;;0.30;0.30;;;;;;;17.44;57.83;99977.97;5074538;28;20077;-72
2023/10/25 06:45:28;;;;;;;0.30;0.30;;;;;;;17.25;58.79;99979.84;5073885;28;20040;-72
2023/10/25 06:47:54;;;;;;;0.30;0.30;;;;;;;17.52;57.90;99969.22;5073593;28;20048;-71
2023/10/25 06:50:20;;;;;;;0.20;0.20;;;;;;;17.73;57.43;99968.94;5073978;28;20060;-72
2023/10/25 06:52:45;;;;;;;0.20;0.20;;;;;;;17.40;58.44;99960.63;5073914;28;20186;-71
2023/10/25 06:55:12;;;;;;;0.30;0.30;;;;;;;17.42;58.66;99958.44;5074638;28;20082;-72
2023/10/25 06:57:37;;;;;;;0.40;0.40;;;;;;;17.58;58.29;99952.81;5073604;28;20048;-72
2023/10/25 07:00:12;;;;;;;0.20;0.20;;;;;;;17.73;57.64;99953.41;5073702;28;20102;-71
2023/10/25 07:02:52;;;;;;;0.10;0.10;;;;;;;17.74;58.26;99946.09;5073723;28;20131;-73
2023/10/25 07:05:23;;;;;;;0.20;0.20;;;;;;;17.22;59.54;99950.53;5073367;28;20152;-72
2023/10/25 07:07:52;;;;;;;0.10;0.10;;;;;;;17.62;58.43;99940.28;5073478;28;20033;-72
2023/10/25 07:10:18;;;;;;;0.38;0.38;;;;;;;17.62;58.52;99946.53;5073769;28;20472;-72
2023/10/25 07:12:44;;;;;;;0.10;0.10;;;;;;;17.79;58.19;99941.38;5073400;28;20045;-73
2023/10/25 07:15:11;;;;;;;0.30;0.30;;;;;;;17.91;57.67;99943.63;5073204;28;20040;-72
2023/10/25 07:17:37;;;;;;;0.30;0.30;;;;;;;17.94;57.84;99933.00;5073484;28;20577;-72
2023/10/25 07:20:04;;;;;;;0.28;0.28;;;;;;;17.76;58.44;99941.97;5072552;28;20106;-72
2023/10/25 07:22:30;;;;;;;0.30;0.30;;;;;;;17.71;58.97;99936.59;5072878;28;20370;-72
2023/10/25 07:24:57;;;;;;;0.20;0.20;;;;;;;17.80;57.92;99936.75;5073493;28;20027;-72
2023/10/25 07:27:23;;;;;;;0.32;0.32;;;;;;;17.98;57.85;99927.78;5073067;28;20098;-73
2023/10/25 07:29:49;;;;;;;0.30;0.30;;;;;;;18.13;57.76;99933.78;5072549;28;20044;-72
2023/10/25 07:32:15;;;;;;;0.15;0.15;;;;;;;18.09;57.47;99921.88;5054739;28;20036;-72
2023/10/25 07:34:40;;;;;;;0.20;0.20;;;;;;;18.11;57.23;99932.47;5072869;28;20127;-72
2023/10/25 07:37:06;;;;;;;0.20;0.20;;;;;;;17.92;59.19;99924.34;5073099;28;20108;-72
2023/10/25 07:39:32;;;;;;;0.20;0.20;;;;;;;18.21;57.68;99922.22;5054464;28;20036;-72
2023/10/25 07:41:57;;;;;;;0.20;0.20;;;;;;;17.83;58.92;99922.56;5072704;28;20027;-72
2023/10/25 07:44:22;;;;;;;0.20;0.20;;;;;;;17.54;59.63;99920.81;5072396;28;20113;-73
2023/10/25 07:46:48;;;;;;;0.20;0.20;;;;;;;18.18;57.48;99914.66;5072427;28;20075;-73
2023/10/25 07:49:13;;;;;;;0.20;0.20;;;;;;;18.55;56.70;99911.06;5055170;28;20510;-73
2023/10/25 07:51:38;;;;;;;0.20;0.20;;;;;;;18.50;57.04;99907.59;5072891;28;20050;-74
2023/10/25 07:54:04;;;;;;;0.28;0.28;;;;;;;18.56;56.83;99903.69;5073260;28;20076;-74
2023/10/25 07:56:29;;;;;;;0.10;0.10;;;;;;;18.22;57.42;99896.63;5072860;28;20040;-74
2023/10/25 07:58:55;;;;;;;0.22;0.22;;;;;;;18.61;57.01;99898.16;5072566;28;20058;-73
2023/10/25 08:01:20;;;;;;;0.20;0.20;;;;;;;18.50;56.87;99894.00;5054693;28;20021;-73
2023/10/25 08:03:45;;;;;;;0.20;0.20;;;;;;;18.45;58.11;99889.47;5073344;28;20058;-73
2023/10/25 08:06:11;;;;;;;0.30;0.30;;;;;;;18.18;57.91;99887.47;5072768;28;20041;-74
2023/10/25 08:08:36;;;;;;;0.30;0.30;;;;;;;18.37;57.99;99877.34;5072746;28;20037;-72
2023/10/25 08:11:03;;;;;;;0.28;0.28;;;;;;;18.76;57.28;99878.81;5072378;28;20031;-72
2023/10/25 08:13:29;;;;;;;0.20;0.20;;;;;;;18.76;56.95;99876.09;5072903;28;20047;-74
2023/10/25 08:15:59;;;;;;;0.20;0.20;;;;;;;18.69;57.24;99881.13;5073086;28;20103;-74
2023/10/25 08:18:29;;;;;;;0.22;0.22;;;;;;;18.81;57.19;99876.00;5072602;28;20173;-74
2023/10/25 08:20:55;;;;;;;0.20;0.20;;;;;;;18.79;57.53;99870.06;5072513;28;20037;-73
2023/10/25 08:23:20;;;;;;;0.20;0.20;;;;;;;18.29;58.26;99871.78;5073140;28;20098;-72
2023/10/25 08:25:45;;;;;;;0.20;0.20;;;;;;;18.94;57.19;99865.13;5072461;28;20029;-73
2023/10/25 08:28:11;;;;;;;0.28;0.28;;;;;;;18.82;56.98;99864.81;5073062;28;20032;-73
2023/10/25 08:30:36;;;;;;;0.20;0.20;;;;;;;18.77;57.02;99862.16;5072465;28;20033;-73
2023/10/25 08:33:02;;;;;;;0.10;0.10;;;;;;;19.21;56.41;99864.25;5072312;28;20040;-74
2023/10/25 08:35:27;;;;;;;0.10;0.10;;;;;;;18.80;57.83;99853.41;5072427;28;20024;-74
2023/10/25 08:37:53;;;;;;;0.20;0.20;;;;;;;19.15;57.26;99851.84;5072160;28;20039;-73
2023/10/25 08:40:18;;;;;;;0.20;0.20;;;;;;;19.34;56.41;99844.38;5072813;28;20024;-73
2023/10/25 08:42:44;;;;;;;0.20;0.20;;;;;;;19.59;55.83;99851.16;5071902;28;20068;-74
2023/10/25 08:45:10;;;;;;;0.20;0.20;;;;;;;19.39;56.40;99846.19;5072321;28;20032;-73
2023/10/25 08:47:53;;;;;;;0.20;0.20;;;;;;;19.72;56.11;99844.84;5071997;28;20047;-74
2023/10/25 08:50:20;;;;;;;0.30;0.30;;;;;;;19.81;55.61;99841.06;5055547;28;20036;-74
2023/10/25 08:52:49;;;;;;;0.20;0.20;;;;;;;19.81;55.62;99843.78;5072323;28;20033;-73
2023/10/25 08:55:17;;;;;;;0.20;0.20;;;;;;;19.85;55.78;99839.34;5072129;28;20020;-73
2023/10/25 08:57:43;;;;;;;0.30;0.30;;;;;;;20.11;55.08;99836.78;5071780;28;20036;-73
2023/10/25 09:00:09;;;;;;;0.20;0.20;;;;;;;20.23;54.73;99830.75;5072937;28;20116;-74
2023/10/25 09:03:00;;;;;;;0.20;0.20;;;;;;;20.17;54.67;99832.78;5080436;28;20119;-73
2023/10/25 09:05:39;;;;;;;0.22;0.22;;;;;;;20.27;54.81;99829.84;5071392;28;20035;-73
2023/10/25 09:08:14;;;;;;;0.22;0.22;;;;;;;20.24;55.21;99830.47;5062739;28;20042;-73
2023/10/25 09:10:39;;;;;;;0.25;0.25;;;;;;;19.92;56.00;99828.81;5070805;28;20044;-74
2023/10/25 09:13:12;;;;;;;0.40;0.40;;;;;;;19.91;55.95;99829.13;5070774;28;20074;-73
2023/10/25 09:15:38;;;;;;;0.10;0.10;;;;;;;20.01;55.80;99817.94;5052891;28;20040;-73
2023/10/25 09:18:03;;;;;;;0.30;0.30;;;;;;;19.99;55.80;99823.72;5051473;28;20559;-73
2023/10/25 09:20:28;;;;;;;0.13;0.13;;;;;;;20.07;55.49;99830.31;5070410;28;20036;-73
2023/10/25 09:23:11;;;;;;;0.20;0.20;;;;;;;20.48;55.02;99827.38;5070201;28;20587;-73
2023/10/25 09:25:37;;;;;;;0.20;0.20;;;;;;;19.97;55.91;99823.22;5069362;28;20539;-74
2023/10/25 09:28:03;;;;;;;0.20;0.20;;;;;;;20.22;55.49;99821.81;5071348;28;20044;-73
2023/10/25 09:30:30;;;;;;;0.10;0.10;;;;;;;21.10;52.56;99814.41;5070765;28;20098;-74
2023/10/25 09:32:57;;;;;;;0.20;0.20;;;;;;;21.15;52.21;99811.53;5070727;28;20044;-73
2023/10/25 09:35:22;;;;;;;0.20;0.20;;;;;;;21.53;51.57;99813.31;5070775;28;20044;-73
2023/10/25 09:37:49;;;;;;;0.20;0.20;;;;;;;21.36;52.04;99816.03;5070537;28;20515;-73
2023/10/25 09:40:14;;;;;;;0.10;0.10;;;;;;;20.91;52.64;99820.91;5071534;28;20020;-73
2023/10/25 09:42:45;;;;;;;0.20;0.20;;;;;;;21.10;52.41;99812.47;5070545;28;20512;-74
2023/10/25 09:45:12;;;;;;;;;;;;;;;21.27;51.22;99812.47;5070962;28;20049;-73
2023/10/25 09:47:41;;;;;;;0.20;0.20;;;;;;;21.33;51.45;99824.06;5070498;28;19924;-73
2023/10/25 09:50:23;;;;;;;0.20;0.20;;;;;;;20.67;53.51;99819.72;5070976;28;20028;-73
2023/10/25 09:52:52;;;;;;;0.30;0.30;;;;;;;20.34;54.39;99808.38;5072105;28;20039;-74
2023/10/25 09:55:21;;;;;;;0.17;0.17;;;;;;;19.90;55.64;99811.13;5075890;28;20024;-73
2023/10/25 09:57:48;;;;;;;0.20;0.20;;;;;;;20.21;54.74;99803.81;5084379;28;20488;-74
2023/10/25 10:00:14;;;;;;;0.20;0.20;;;;;;;20.07;56.25;99798.41;5057475;28;20036;-74
2023/10/25 10:02:48;;;;;;;0.10;0.10;;;;;;;20.66;53.94;99809.91;5075270;28;20224;-73
2023/10/25 10:05:22;;;;;;;0.30;0.30;;;;;;;21.26;52.38;99802.69;5075003;28;20373;-77
2023/10/25 10:07:47;;;;;;;0.20;0.20;;;;;;;20.00;55.15;99805.44;5075383;28;20431;-75
2023/10/25 10:10:39;;;;;;;0.20;0.20;;;;;;;21.01;52.98;99806.22;5076030;28;20036;-74
2023/10/25 10:13:15;;;;;;;0.10;0.10;;;;;;;21.13;51.81;99794.66;5075395;28;20036;-73
2023/10/25 10:16:01;;;;;;;0.20;0.20;;;;;;;20.70;53.53;99794.50;5074863;28;20036;-78
2023/10/25 10:18:45;;;;;;;0.20;0.20;;;;;;;20.57;53.37;99790.81;5074822;28;20048;-72
2023/10/25 10:21:13;;;;;;;0.10;0.10;;;;;;;21.11;51.99;99783.22;5074214;28;20123;-74
2023/10/25 10:23:50;;;;;;;0.20;0.20;;;;;;;21.20;52.04;99776.66;5074503;28;20037;-72
2023/10/25 10:26:44;;;;;;;0.28;0.28;;;;;;;21.38;50.98;99775.53;5073855;28;20480;-74
2023/10/25 10:29:31;;;;;;;0.20;0.20;;;;;;;21.54;51.13;99776.63;5071189;28;20039;-73
2023/10/25 10:32:01;;;;;;;0.10;0.10;;;;;;;21.56;50.48;99777.09;5071823;28;20036;-74
2023/10/25 10:34:36;;;;;;;0.20;0.20;;;;;;;21.67;50.41;99767.44;5073389;28;20103;-72
2023/10/25 10:37:17;;;;;;;0.20;0.20;;;;;;;21.59;51.08;99772.91;5073605;28;20437;-73
2023/10/25 10:39:57;;;;;;;0.10;0.10;;;;;;;21.37;51.39;99765.72;5072898;28;20083;-74
2023/10/25 10:42:33;;;;;;;0.20;0.20;;;;;;;21.44;51.21;99770.69;5073587;28;20040;-74
2023/10/25 10:45:01;;;;;;;0.10;0.10;;;;;;;21.53;50.61;99761.34;5073479;28;20090;-74
2023/10/25 10:47:56;;;;;;;0.20;0.20;;;;;;;21.56;50.60;99757.97;5072013;28;20033;-73
2023/10/25 10:50:23;;;;;;;0.20;0.20;;;;;;;20.98;51.77;99765.81;5073466;28;20040;-73
2023/10/25 10:52:50;;;;;;;0.20;0.20;;;;;;;21.37;50.98;99753.97;5075730;28;20029;-74
2023/10/25 10:55:18;;;;;;;0.13;0.13;;;;;;;20.94;52.01;99751.19;5089172;28;20036;-73
2023/10/25 10:57:44;;;;;;;0.20;0.20;;;;;;;21.21;51.55;99739.19;5072836;28;20035;-74
2023/10/25 11:00:13;;;;;;;0.20;0.20;;;;;;;21.34;51.47;99740.97;5073149;28;20080;-74
2023/10/25 11:02:43;;;;;;;0.20;0.20;;;;;;;21.25;51.65;99738.22;5072617;28;20044;-75
2023/10/25 11:05:09;;;;;;;0.20;0.20;;;;;;;21.16;52.08;99736.63;5072512;28;20025;-74
2023/10/25 11:07:34;;;;;;;0.10;0.10;;;;;;;20.66;53.79;99734.28;5072762;28;20472;-73
2023/10/25 11:09:59;;;;;;;0.17;0.17;;;;;;;20.48;54.46;99729.13;5054363;28;20044;-74
2023/10/25 11:12:26;;;;;;;0.10;0.10;;;;;;;19.89;56.23;99731.25;5071944;28;20669;-75
2023/10/25 11:14:52;;;;;;;0.10;0.10;;;;;;;20.15;55.33;99726.72;5072732;28;20062;-75
2023/10/25 11:17:17;;;;;;;0.10;0.10;;;;;;;20.39;55.13;99722.81;5071865;28;20476;-74
2023/10/25 11:19:47;;;;;;;0.20;0.20;;;;;;;20.47;54.60;99714.66;5072480;28;20052;-74
2023/10/25 11:22:14;;;;;;;0.17;0.17;;;;;;;20.34;55.66;99710.16;5072937;28;20028;-76
2023/10/25 11:24:40;;;;;;;0.13;0.13;;;;;;;20.33;55.38;99703.06;5072298;28;20036;-75
2023/10/25 11:27:06;;;;;;;0.13;0.13;;;;;;;20.37;55.47;99705.94;5072357;28;20031;-75
2023/10/25 11:29:32;;;;;;;0.22;0.22;;;;;;;20.12;56.67;99710.19;5072563;28;20036;-75